Time;durP1;ratioP1;P1;durP2;ratioP2;P2;SDS_P1;SDS_P2;PMS_P1;PMS_P2;Temp;Humidity;BMP_temperature;BMP_pressure;BME280_temperature;BME280_humidity;BME280_pressure;Samples;Min_cycle;Max_cycle;Signal;HPM_P1;HPM_P2
2021/01/03 00:02:10;;;;;;;21.10;13.45;;;2.70;92.20;;;;;;6356261;27;20281;-77
2021/01/03 00:05:12;;;;;;;20.17;13.50;;;2.10;92.20;;;;;;6374989;27;20146;-79
2021/01/03 00:08:12;;;;;;;20.30;13.38;;;1.50;91.70;;;;;;6374339;27;20445;-79
2021/01/03 00:11:13;;;;;;;18.92;14.10;;;2.40;92.20;;;;;;6374330;27;20034;-79
2021/01/03 00:14:13;;;;;;;22.50;15.20;;;2.10;92.20;;;;;;6374005;27;20019;-78
2021/01/03 00:17:14;;;;;;;20.95;14.18;;;2.00;92.40;;;;;;6373739;27;20445;-78
2021/01/03 00:20:17;;;;;;;23.00;14.38;;;1.50;92.10;;;;;;6356122;27;20099;-79
2021/01/03 00:23:19;;;;;;;22.23;14.73;;;2.30;92.20;;;;;;6374039;27;20011;-77
2021/01/03 00:26:19;;;;;;;19.10;14.05;;;1.80;92.20;;;;;;6373561;27;20015;-78
2021/01/03 00:29:20;;;;;;;20.23;14.40;;;1.80;92.10;;;;;;6374083;27;20034;-78
2021/01/03 00:32:21;;;;;;;20.40;13.32;;;;;;;;;;6373562;27;20082;-78
2021/01/03 00:35:32;;;;;;;19.83;14.55;;;1.40;90.90;;;;;;6374076;27;20055;-78
2021/01/03 00:38:33;;;;;;;19.08;13.95;;;1.40;91.10;;;;;;6373416;27;20039;-79
2021/01/03 00:41:34;;;;;;;18.00;12.65;;;2.50;92.90;;;;;;6373575;27;20031;-77
2021/01/03 00:44:34;;;;;;;17.50;13.60;;;2.60;92.70;;;;;;6373221;27;20015;-79
2021/01/03 00:47:35;;;;;;;21.33;13.43;;;1.90;92.70;;;;;;6373445;27;20051;-79
2021/01/03 00:50:36;;;;;;;17.98;13.00;;;1.80;92.60;;;;;;6373226;27;20045;-78
2021/01/03 00:53:36;;;;;;;20.73;13.90;;;1.80;92.70;;;;;;6354807;27;20015;-77
2021/01/03 00:56:37;;;;;;;18.90;14.27;;;1.50;92.90;;;;;;6372389;27;20027;-79
2021/01/03 00:59:38;;;;;;;20.95;14.23;;;1.60;99.90;;;;;;6372830;27;20494;-78
2021/01/03 01:02:38;;;;;;;19.73;13.98;;;2.00;93.10;;;;;;6372932;27;20106;-78
2021/01/03 01:05:39;;;;;;;19.00;13.43;;;2.10;93.10;;;;;;6372972;27;20035;-79
2021/01/03 01:08:39;;;;;;;20.65;13.98;;;2.60;93.20;;;;;;6373340;27;20027;-78
2021/01/03 01:11:40;;;;;;;20.42;14.02;;;1.50;93.10;;;;;;6372796;27;20038;-79
2021/01/03 01:14:41;;;;;;;19.00;13.35;;;;;;;;;;6354497;28;20345;-78
2021/01/03 01:17:42;;;;;;;18.88;13.20;;;1.20;91.70;;;;;;6372655;27;20012;-78
2021/01/03 01:20:43;;;;;;;20.13;13.52;;;;;;;;;;6372675;28;20035;-80
2021/01/03 01:23:44;;;;;;;19.10;13.85;;;1.20;91.80;;;;;;6372641;27;20365;-78
2021/01/03 01:26:44;;;;;;;21.30;14.57;;;1.00;99.90;;;;;;6354055;28;20023;-79
2021/01/03 01:29:45;;;;;;;19.38;13.70;;;2.60;93.80;;;;;;6354341;28;20023;-77
2021/01/03 01:32:45;;;;;;;20.00;14.85;;;2.30;93.80;;;;;;6372449;28;20512;-77
2021/01/03 01:35:46;;;;;;;20.13;14.48;;;1.80;93.90;;;;;;6372783;28;20016;-78
2021/01/03 01:38:47;;;;;;;19.67;14.77;;;1.40;94.00;;;;;;6372387;28;20039;-77
2021/01/03 01:41:47;;;;;;;20.77;14.65;;;2.10;94.10;;;;;;6372774;28;20110;-78
2021/01/03 01:44:48;;;;;;;23.80;13.95;;;2.60;94.20;;;;;;6372733;28;20024;-79
2021/01/03 01:47:49;;;;;;;19.85;14.95;;;1.40;93.90;;;;;;6372667;27;20035;-78
2021/01/03 01:50:58;;;;;;;22.77;15.20;;;1.90;94.00;;;;;;6337665;28;20031;-77
2021/01/03 01:54:03;;;;;;;19.95;14.05;;;1.20;92.60;;;;;;6354077;28;20015;-78
2021/01/03 01:57:08;;;;;;;18.67;14.00;;;1.20;99.90;;;;;;6372178;28;20023;-78
2021/01/03 02:00:16;;;;;;;18.90;13.80;;;1.20;99.90;;;;;;6354303;28;20442;-79
2021/01/03 02:03:41;;;;;;;20.02;14.15;;;1.30;99.90;;;;;;6337649;28;20401;-79
2021/01/03 02:06:49;;;;;;;19.00;13.68;;;1.30;99.90;;;;;;6341493;27;20027;-78
2021/01/03 02:09:49;;;;;;;21.50;14.23;;;0.90;99.90;;;;;;6358736;27;20027;-79
2021/01/03 02:13:12;;;;;;;20.83;15.15;;;2.60;94.40;;;;;;6377143;27;20068;-78
2021/01/03 02:16:17;;;;;;;18.38;14.02;;;1.00;99.90;;;;;;6358943;27;20126;-78
2021/01/03 02:19:20;;;;;;;21.25;14.75;;;1.30;99.90;;;;;;6376789;27;20358;-78
2021/01/03 02:22:23;;;;;;;19.10;14.75;;;0.80;99.90;;;;;;6358735;27;20031;-79
2021/01/03 02:25:24;;;;;;;18.27;13.55;;;1.60;99.90;;;;;;6376532;27;20417;-78
2021/01/03 02:28:25;;;;;;;18.67;14.18;;;1.40;95.40;;;;;;6376559;27;20019;-78
2021/01/03 02:31:32;;;;;;;20.58;13.93;;;2.40;95.70;;;;;;6358032;27;20031;-78
2021/01/03 02:34:38;;;;;;;19.38;14.65;;;0.90;95.30;;;;;;6358070;27;20453;-77
2021/01/03 02:37:41;;;;;;;17.52;13.20;;;2.10;95.90;;;;;;6376235;27;20028;-78
2021/01/03 02:40:42;;;;;;;21.05;14.40;;;1.90;95.90;;;;;;6358161;27;20035;-78
2021/01/03 02:43:42;;;;;;;19.13;14.48;;;1.50;95.90;;;;;;6376142;27;20030;-78
2021/01/03 02:46:43;;;;;;;18.20;13.80;;;2.50;96.20;;;;;;6376134;27;20020;-78
2021/01/03 02:49:43;;;;;;;21.65;14.75;;;0.80;95.90;;;;;;6358164;27;20023;-79
2021/01/03 02:52:44;;;;;;;20.10;14.32;;;1.20;95.90;;;;;;6376210;27;20020;-78
2021/01/03 02:55:45;;;;;;;16.80;13.40;;;1.20;96.00;;;;;;6376057;27;20019;-77
2021/01/03 02:58:46;;;;;;;19.25;14.55;;;1.70;96.20;;;;;;6375708;27;20368;-78
2021/01/03 03:01:46;;;;;;;18.77;14.00;;;0.80;96.00;;;;;;6376069;27;20128;-79
2021/01/03 03:04:47;;;;;;;21.95;14.80;;;1.10;96.00;;;;;;6375430;27;20063;-78
2021/01/03 03:07:48;;;;;;;20.20;14.48;;;2.40;96.40;;;;;;6375721;27;20098;-78
2021/01/03 03:10:49;;;;;;;18.52;13.60;;;1.20;96.10;;;;;;6375570;27;20027;-78
2021/01/03 03:13:49;;;;;;;18.70;14.70;;;2.40;96.40;;;;;;6375553;27;20023;-77
2021/01/03 03:16:57;;;;;;;21.10;13.98;;;2.20;96.40;;;;;;6375433;27;20073;-78
2021/01/03 03:19:57;;;;;;;18.05;14.02;;;0.90;96.10;;;;;;6374944;27;20017;-77
2021/01/03 03:22:58;;;;;;;18.63;13.82;;;0.60;99.90;;;;;;6357084;27;20353;-78
2021/01/03 03:25:58;;;;;;;19.20;14.93;;;0.80;96.10;;;;;;6375695;27;20037;-79
2021/01/03 03:28:59;;;;;;;19.75;15.15;;;1.80;96.40;;;;;;6375985;27;20023;-78
2021/01/03 03:32:00;;;;;;;21.83;15.13;;;1.90;96.60;;;;;;6375005;27;20019;-79
2021/01/03 03:35:00;;;;;;;18.58;14.48;;;1.00;96.20;;;;;;6375391;27;20453;-78
2021/01/03 03:38:01;;;;;;;19.77;14.02;;;0.90;96.20;;;;;;6374795;27;20122;-79
2021/01/03 03:41:02;;;;;;;19.15;13.77;;;0.80;96.10;;;;;;6374752;27;20098;-79
2021/01/03 03:44:03;;;;;;;20.30;14.80;;;0.80;96.10;;;;;;6375020;27;20024;-78
2021/01/03 03:47:04;;;;;;;18.80;14.00;;;0.80;95.90;;;;;;6374821;27;20350;-79
2021/01/03 03:50:06;;;;;;;19.90;13.75;;;2.20;96.30;;;;;;6374618;27;20026;-80
2021/01/03 03:53:07;;;;;;;17.85;14.07;;;0.80;95.50;;;;;;6374933;27;20048;-78
2021/01/03 03:56:09;;;;;;;22.27;15.18;;;2.20;96.60;;;;;;6374794;27;20451;-78
2021/01/03 03:59:10;;;;;;;20.38;13.90;;;0.90;99.90;;;;;;6374568;27;20023;-77
2021/01/03 04:02:10;;;;;;;17.17;12.93;;;0.90;95.90;;;;;;6374044;27;20081;-78
2021/01/03 04:05:13;;;;;;;18.05;13.70;;;1.60;96.20;;;;;;6374349;27;20052;-78
2021/01/03 04:08:14;;;;;;;19.67;14.15;;;0.80;95.50;;;;;;6374194;27;20030;-80
2021/01/03 04:11:15;;;;;;;17.70;13.55;;;1.00;96.10;;;;;;6374042;27;20080;-79
2021/01/03 04:14:17;;;;;;;18.00;13.65;;;1.10;96.30;;;;;;6374305;27;20027;-79
2021/01/03 04:17:18;;;;;;;15.85;12.32;;;0.70;99.90;;;;;;6373800;27;20035;-78
2021/01/03 04:20:19;;;;;;;17.58;13.48;;;1.80;96.40;;;;;;6355764;27;20026;-77
2021/01/03 04:23:19;;;;;;;17.50;13.50;;;2.00;96.60;;;;;;6373763;27;20156;-78
2021/01/03 04:26:20;;;;;;;17.90;13.68;;;1.00;96.20;;;;;;6373753;27;20379;-77
2021/01/03 04:29:21;;;;;;;19.92;13.70;;;1.20;96.30;;;;;;6372777;27;20019;-78
2021/01/03 04:32:21;;;;;;;19.13;14.13;;;0.80;96.30;;;;;;6373808;27;20023;-78
2021/01/03 04:35:22;;;;;;;19.30;13.27;;;1.80;96.60;;;;;;6373434;27;20019;-78
2021/01/03 04:38:23;;;;;;;17.10;13.35;;;0.70;96.40;;;;;;6373239;27;20042;-78
2021/01/03 04:41:25;;;;;;;18.98;13.77;;;1.60;96.80;;;;;;6373266;27;20057;-77
2021/01/03 04:44:40;;;;;;;18.05;13.60;;;0.60;96.40;;;;;;6373192;27;20472;-78
2021/01/03 04:47:57;;;;;;;18.65;13.98;;;0.60;95.40;;;;;;6356106;27;20030;-78
2021/01/03 04:51:39;;;;;;;17.30;12.93;;;1.70;96.90;;;;;;6355124;27;20019;-78
2021/01/03 04:54:50;;;;;;;20.80;14.43;;;0.60;95.60;;;;;;6316470;27;20035;-78
2021/01/03 04:58:03;;;;;;;19.45;13.20;;;0.60;95.30;;;;;;6356144;27;20092;-78
2021/01/03 05:05:28;;;;;;;18.30;14.20;;;0.60;95.30;;;;;;6330102;27;20381;-78
2021/01/03 05:08:44;;;;;;;18.85;14.13;;;0.60;95.20;;;;;;6355176;27;20011;-79
2021/01/03 05:11:55;;;;;;;18.75;14.00;;;0.60;95.00;;;;;;6355909;27;20160;-78
2021/01/03 05:15:05;;;;;;;18.15;14.23;;;0.60;95.00;;;;;;6355039;27;20019;-79
2021/01/03 05:18:06;;;;;;;19.85;14.23;;;0.60;96.30;;;;;;6354763;27;20062;-79
2021/01/03 05:21:06;;;;;;;17.55;13.90;;;2.00;96.60;;;;;;6373072;27;20018;-80
2021/01/03 05:24:07;;;;;;;18.63;13.68;;;2.20;96.70;;;;;;6372582;28;20019;-78
2021/01/03 05:27:16;;;;;;;17.23;13.77;;;1.00;96.40;;;;;;6372730;28;20027;-78
2021/01/03 05:30:19;;;;;;;16.20;12.02;;;1.60;96.70;;;;;;6354627;27;20114;-78
2021/01/03 05:33:25;;;;;;;19.27;14.23;;;0.60;96.20;;;;;;6372753;28;20015;-79
2021/01/03 05:36:42;;;;;;;22.73;13.77;;;0.60;96.50;;;;;;6372970;28;20070;-79
2021/01/03 05:39:43;;;;;;;19.95;13.95;;;0.60;95.30;;;;;;6372737;28;20069;-79
2021/01/03 05:42:43;;;;;;;18.65;13.27;;;1.80;96.70;;;;;;6358652;27;20023;-78
2021/01/03 05:46:03;;;;;;;17.83;13.43;;;0.70;96.50;;;;;;6377943;27;20414;-78
2021/01/03 05:49:12;;;;;;;17.98;12.77;;;0.60;95.20;;;;;;6361104;27;20084;-78
2021/01/03 05:52:27;;;;;;;16.80;12.73;;;0.70;95.30;;;;;;6378004;27;20145;-78
2021/01/03 05:55:28;;;;;;;18.85;13.77;;;0.40;99.90;;;;;;6342434;27;20071;-79
2021/01/03 05:58:41;;;;;;;17.88;12.48;;;0.40;99.90;;;;;;6359338;27;20038;-78
2021/01/03 06:01:42;;;;;;;16.48;12.40;;;;;;;;;;6359295;27;20023;-80
2021/01/03 06:04:43;;;;;;;19.33;14.20;;;;;;;;;;6377568;27;20068;-79
2021/01/03 06:08:05;;;;;;;18.27;14.02;;;0.20;99.90;;;;;;6359066;27;20467;-77
2021/01/03 06:11:17;;;;;;;19.10;13.73;;;1.20;99.90;;;;;;6359323;27;20019;-79
2021/01/03 06:14:22;;;;;;;19.63;13.40;;;0.80;99.90;;;;;;6377173;27;20015;-80
2021/01/03 06:17:43;;;;;;;20.55;14.70;;;0.40;99.90;;;;;;6358847;27;20076;-80
2021/01/03 06:20:44;;;;;;;19.20;13.60;;;0.40;99.90;;;;;;6360756;27;20107;-78
2021/01/03 06:23:59;;;;;;;19.50;13.63;;;0.40;99.90;;;;;;6377350;27;20023;-78
2021/01/03 06:27:01;;;;;;;17.02;12.63;;;0.40;99.90;;;;;;6342538;27;20027;-80
2021/01/03 06:30:09;;;;;;;18.23;13.15;;;0.40;99.90;;;;;;6376874;27;20042;-79
2021/01/03 06:33:19;;;;;;;16.50;12.93;;;0.50;99.90;;;;;;6358780;27;20413;-78
2021/01/03 06:36:20;;;;;;;18.33;13.65;;;;;;;;;;6377190;27;20031;-79
2021/01/03 06:40:00;;;;;;;17.83;13.18;;;0.50;95.10;;;;;;6376838;27;20031;-77
2021/01/03 06:43:12;;;;;;;19.33;13.25;;;0.40;95.30;;;;;;6360479;27;20118;-80
2021/01/03 06:46:50;;;;;;;20.23;13.77;;;1.70;97.00;;;;;;6358547;27;20094;-77
2021/01/03 06:49:59;;;;;;;18.45;13.27;;;0.40;95.50;;;;;;6376422;27;20264;-78
2021/01/03 06:53:13;;;;;;;20.48;13.20;;;0.40;95.50;;;;;;6375411;27;20022;-78
2021/01/03 06:56:32;;;;;;;19.30;13.52;;;0.70;96.90;;;;;;6341399;27;20347;-78
2021/01/03 06:59:45;;;;;;;21.05;14.07;;;0.40;96.90;;;;;;6376271;27;20068;-79
2021/01/03 07:02:53;;;;;;;17.65;13.73;;;0.30;96.50;;;;;;6376139;27;20072;-78
2021/01/03 07:05:56;;;;;;;17.42;13.10;;;0.80;96.80;;;;;;6357755;27;20049;-78
2021/01/03 07:08:57;;;;;;;17.33;13.68;;;1.60;97.30;;;;;;6376298;27;20023;-78
2021/01/03 07:11:58;;;;;;;17.52;12.88;;;0.60;96.80;;;;;;6357454;27;20034;-78
2021/01/03 07:14:59;;;;;;;17.27;12.68;;;0.20;99.90;;;;;;6375694;27;20335;-77
2021/01/03 07:18:05;;;;;;;18.83;13.57;;;0.20;99.90;;;;;;6375951;27;20034;-78
2021/01/03 07:21:06;;;;;;;19.25;14.18;;;;;;;;;;6340948;27;20127;-77
2021/01/03 07:24:26;;;;;;;17.88;13.73;;;0.60;99.90;;;;;;6375926;27;20011;-78
2021/01/03 07:27:39;;;;;;;16.95;12.93;;;0.40;96.20;;;;;;6375570;27;20030;-79
2021/01/03 07:31:04;;;;;;;19.52;13.75;;;0.50;99.90;;;;;;6357220;27;20034;-79
2021/01/03 07:34:26;;;;;;;20.90;14.75;;;0.10;99.90;;;;;;6358014;27;20400;-78
2021/01/03 07:37:29;;;;;;;20.67;13.88;;;0.20;99.90;;;;;;6375283;27;20039;-78
2021/01/03 07:40:30;;;;;;;18.52;14.23;;;;;;;;;;6375154;27;20019;-78
2021/01/03 07:43:55;;;;;;;17.67;12.90;;;0.20;99.90;;;;;;6356693;27;20428;-78
2021/01/03 07:47:01;;;;;;;18.08;13.48;;;0.30;99.90;;;;;;6375215;27;20023;-77
2021/01/03 07:50:20;;;;;;;19.17;15.20;;;0.40;99.90;;;;;;6374810;27;20449;-77
2021/01/03 07:53:21;;;;;;;17.10;13.02;;;;;;;;;;6374971;27;20023;-78
2021/01/03 07:56:27;;;;;;;18.35;14.65;;;0.30;95.30;;;;;;6374561;27;20058;-78
2021/01/03 07:59:28;;;;;;;17.83;13.82;;;0.20;99.90;;;;;;6374651;27;20015;-77
2021/01/03 08:02:30;;;;;;;18.52;14.10;;;1.00;97.00;;;;;;6374311;27;20120;-77
2021/01/03 08:05:31;;;;;;;19.42;15.18;;;1.10;97.10;;;;;;6374540;27;20080;-77
2021/01/03 08:08:31;;;;;;;19.17;14.45;;;0.60;96.90;;;;;;6374438;27;20027;-78
2021/01/03 08:11:39;;;;;;;19.55;15.00;;;1.50;97.00;;;;;;6374352;27;20039;-79
2021/01/03 08:14:41;;;;;;;19.63;14.88;;;0.40;95.70;;;;;;6356788;27;20114;-79
2021/01/03 08:17:42;;;;;;;19.95;15.82;;;2.10;97.30;;;;;;6339235;27;20062;-78
2021/01/03 08:20:43;;;;;;;20.50;15.05;;;2.00;97.30;;;;;;6355967;27;20033;-79
2021/01/03 08:23:43;;;;;;;20.83;15.60;;;0.60;96.90;;;;;;6374321;27;20027;-78
2021/01/03 08:26:52;;;;;;;18.58;14.85;;;0.40;96.80;;;;;;6374042;27;20445;-78
2021/01/03 08:30:00;;;;;;;23.90;16.38;;;0.60;97.00;;;;;;6339232;27;20139;-78
2021/01/03 08:33:09;;;;;;;23.08;16.50;;;1.30;97.30;;;;;;6356022;27;20019;-78
2021/01/03 08:36:30;;;;;;;22.00;16.83;;;0.60;97.10;;;;;;6355622;27;20399;-78
2021/01/03 08:39:31;;;;;;;19.48;15.60;;;0.80;97.10;;;;;;6373808;27;20029;-78
2021/01/03 08:42:37;;;;;;;22.65;17.00;;;1.20;97.00;;;;;;6373572;27;20027;-78
2021/01/03 08:45:39;;;;;;;21.95;16.90;;;1.90;97.30;;;;;;6338584;27;20023;-79
2021/01/03 08:48:39;;;;;;;22.83;16.88;;;2.10;97.30;;;;;;6355199;27;20023;-78
2021/01/03 08:51:40;;;;;;;24.77;16.83;;;1.70;96.90;;;;;;6338268;27;20076;-79
2021/01/03 08:54:41;;;;;;;22.50;16.08;;;0.90;96.50;;;;;;6373412;27;20479;-79
2021/01/03 08:57:41;;;;;;;23.52;17.00;;;0.80;96.60;;;;;;6354988;27;20031;-79
2021/01/03 09:00:44;;;;;;;23.58;17.17;;;0.80;96.60;;;;;;6337945;27;20114;-78
2021/01/03 09:03:44;;;;;;;24.52;17.55;;;0.80;96.50;;;;;;6355136;27;20047;-77
2021/01/03 09:06:50;;;;;;;22.13;15.93;;;2.40;96.90;;;;;;6355239;27;20070;-79
2021/01/03 09:09:50;;;;;;;23.33;16.95;;;2.60;97.10;;;;;;6338471;27;20023;-78
2021/01/03 09:12:51;;;;;;;24.38;17.02;;;0.90;96.80;;;;;;6337837;27;20450;-78
2021/01/03 09:16:30;;;;;;;23.00;16.63;;;0.70;99.90;;;;;;6337294;27;20027;-78
2021/01/03 09:19:55;;;;;;;24.55;18.13;;;0.70;99.90;;;;;;6341282;27;20031;-79
2021/01/03 09:22:56;;;;;;;26.60;17.02;;;0.50;99.90;;;;;;6356790;28;20457;-78
2021/01/03 09:25:57;;;;;;;24.70;15.80;;;0.70;99.90;;;;;;6354961;28;20019;-77
2021/01/03 09:29:08;;;;;;;22.48;16.33;;;2.00;96.70;;;;;;6354867;28;20023;-79
2021/01/03 09:32:28;;;;;;;24.60;17.30;;;0.50;99.90;;;;;;6373244;28;20338;-79
2021/01/03 09:35:59;;;;;;;24.58;17.20;;;0.80;99.90;;;;;;6372893;28;20523;-77
2021/01/03 09:39:10;;;;;;;23.45;17.83;;;1.00;99.90;;;;;;6372808;27;20031;-78
2021/01/03 09:42:33;;;;;;;24.35;17.58;;;0.70;96.50;;;;;;6372747;27;20034;-78
2021/01/03 09:45:50;;;;;;;24.27;17.50;;;1.00;99.90;;;;;;6372942;28;20015;-78
2021/01/03 09:48:51;;;;;;;25.02;18.35;;;;;;;;;;6355247;28;20110;-78
2021/01/03 09:52:16;;;;;;;23.80;18.63;;;0.90;96.60;;;;;;6372882;28;20485;-77
2021/01/03 09:55:27;;;;;;;25.33;17.42;;;1.00;95.00;;;;;;6357484;27;20031;-78
2021/01/03 09:58:40;;;;;;;26.33;19.55;;;1.00;95.10;;;;;;6355371;28;20054;-78
2021/01/03 10:01:40;;;;;;;24.55;18.95;;;1.00;94.90;;;;;;6372771;28;20461;-78
2021/01/03 10:04:44;;;;;;;27.08;19.20;;;2.80;96.40;;;;;;6372436;28;20082;-79
2021/01/03 10:07:45;;;;;;;24.20;18.08;;;1.20;96.00;;;;;;6372468;27;20019;-78
2021/01/03 10:10:55;;;;;;;25.27;19.17;;;1.80;96.10;;;;;;6372607;28;20015;-78
2021/01/03 10:14:10;;;;;;;25.58;17.13;;;1.10;95.80;;;;;;6372450;28;20026;-78
2021/01/03 10:17:18;;;;;;;25.75;19.17;;;1.20;94.70;;;;;;6372730;28;20381;-77
2021/01/03 10:20:37;;;;;;;24.25;18.35;;;1.90;96.20;;;;;;6372301;27;20023;-80
2021/01/03 10:23:39;;;;;;;28.00;19.33;;;1.20;94.80;;;;;;6372388;27;20027;-78
2021/01/03 10:26:40;;;;;;;24.30;17.38;;;1.80;95.90;;;;;;6372868;27;20023;-78
2021/01/03 10:29:40;;;;;;;27.95;19.40;;;2.50;96.00;;;;;;6377190;27;20164;-78
2021/01/03 10:32:41;;;;;;;28.45;19.05;;;2.10;95.80;;;;;;6358494;27;20055;-77
2021/01/03 10:35:42;;;;;;;24.05;17.15;;;2.70;96.00;;;;;;6376842;27;20022;-78
2021/01/03 10:38:42;;;;;;;26.83;18.65;;;2.10;95.70;;;;;;6376600;27;20027;-78
2021/01/03 10:41:43;;;;;;;26.27;19.08;;;2.00;95.70;;;;;;6376620;27;20019;-78
2021/01/03 10:44:43;;;;;;;26.52;18.58;;;1.70;95.50;;;;;;6376418;27;20023;-78
2021/01/03 10:47:44;;;;;;;60.78;35.90;;;2.10;95.60;;;;;;6376775;27;20023;-78
2021/01/03 10:50:47;;;;;;;28.77;19.08;;;2.10;96.40;;;;;;6376826;27;20115;-78
2021/01/03 10:53:47;;;;;;;;;;;2.70;96.10;;;;;;6376864;27;20027;-77
2021/01/03 10:56:49;;;;;;;25.50;17.67;;;1.80;99.90;;;;;;6376122;27;19964;-79
2021/01/03 10:59:49;;;;;;;24.83;18.88;;;1.30;99.90;;;;;;6357792;27;20427;-77
2021/01/03 11:02:50;;;;;;;31.63;19.70;;;1.60;99.90;;;;;;6376315;27;20043;-79
2021/01/03 11:05:52;;;;;;;31.83;21.17;;;1.60;99.90;;;;;;6375943;27;20031;-79
2021/01/03 11:09:13;;;;;;;26.30;18.48;;;1.40;99.90;;;;;;6376546;27;20023;-77
2021/01/03 11:12:15;;;;;;;24.42;18.23;;;1.50;99.90;;;;;;6375033;27;20039;-79
2021/01/03 11:15:16;;;;;;;23.80;17.02;;;1.90;99.90;;;;;;6375698;27;20114;-78
2021/01/03 11:18:17;;;;;;;27.58;19.23;;;1.50;99.90;;;;;;6375752;27;20051;-78
2021/01/03 11:21:17;;;;;;;25.38;17.67;;;1.80;99.90;;;;;;6375776;27;20023;-77
2021/01/03 11:24:18;;;;;;;29.15;18.85;;;3.40;95.20;;;;;;6376267;27;20015;-78
2021/01/03 11:27:19;;;;;;;22.55;16.38;;;3.70;95.00;;;;;;6375612;27;20468;-79
2021/01/03 11:30:20;;;;;;;26.50;18.08;;;2.10;94.40;;;;;;6375437;27;20723;-77
2021/01/03 11:33:21;;;;;;;28.38;18.73;;;1.80;94.30;;;;;;6375194;27;20057;-80
2021/01/03 11:36:21;;;;;;;26.70;17.75;;;3.30;94.80;;;;;;6375344;27;20051;-80
2021/01/03 11:39:22;;;;;;;24.85;17.60;;;1.90;94.60;;;;;;6374957;27;20031;-80
2021/01/03 11:42:33;;;;;;;27.45;19.83;;;2.30;94.80;;;;;;6375278;27;20102;-77
2021/01/03 11:45:34;;;;;;;27.80;18.98;;;1.80;93.30;;;;;;6375105;27;20023;-79
2021/01/03 11:48:34;;;;;;;30.13;21.10;;;3.30;94.50;;;;;;6375483;27;20072;-78
2021/01/03 11:51:35;;;;;;;30.70;20.73;;;2.60;94.40;;;;;;6374983;27;20069;-78
2021/01/03 11:54:36;;;;;;;28.63;19.40;;;3.10;94.80;;;;;;6375368;27;20023;-78
2021/01/03 11:57:37;;;;;;;29.30;21.42;;;1.80;94.40;;;;;;6356482;27;20062;-79
2021/01/03 12:00:37;;;;;;;28.05;19.83;;;3.50;94.90;;;;;;6374647;27;20020;-78
2021/01/03 12:03:38;;;;;;;27.75;19.40;;;3.40;94.90;;;;;;6374637;27;20047;-78
2021/01/03 12:06:39;;;;;;;31.75;22.02;;;;;;;;;;6374520;27;20031;-78
2021/01/03 12:09:39;;;;;;;31.13;20.60;;;1.90;92.80;;;;;;6356312;27;20023;-79
2021/01/03 12:12:40;;;;;;;30.13;21.35;;;2.00;94.10;;;;;;6374422;27;20399;-78
2021/01/03 12:15:40;;;;;;;32.20;21.70;;;3.20;94.30;;;;;;6374388;27;20418;-78
2021/01/03 12:18:41;;;;;;;33.33;22.77;;;2.50;94.10;;;;;;6374089;27;20030;-79
2021/01/03 12:21:42;;;;;;;28.95;20.27;;;2.90;94.00;;;;;;6374331;27;20019;-78
2021/01/03 12:24:42;;;;;;;28.85;19.50;;;2.60;93.90;;;;;;6374427;27;20027;-79
2021/01/03 12:27:43;;;;;;;30.67;20.88;;;2.20;93.50;;;;;;6374391;27;20019;-77
2021/01/03 12:30:44;;;;;;;26.98;18.67;;;2.50;93.70;;;;;;6373904;27;20417;-78
2021/01/03 12:33:44;;;;;;;28.00;19.30;;;3.30;93.70;;;;;;6374073;27;20019;-78
2021/01/03 12:36:45;;;;;;;29.02;20.23;;;3.80;94.30;;;;;;6373948;27;20102;-80
2021/01/03 12:39:46;;;;;;;28.85;19.42;;;3.10;94.20;;;;;;6373644;27;20023;-78
2021/01/03 12:42:46;;;;;;;30.17;20.00;;;3.40;93.90;;;;;;6373982;27;20114;-78
2021/01/03 12:45:47;;;;;;;29.38;19.83;;;3.00;93.90;;;;;;6373621;27;20030;-80
2021/01/03 12:48:48;;;;;;;26.75;20.10;;;2.40;93.90;;;;;;6373860;27;20019;-78
2021/01/03 12:51:58;;;;;;;30.50;20.20;;;2.00;99.90;;;;;;6372523;27;20019;-78
2021/01/03 12:54:59;;;;;;;28.17;19.33;;;;;;;;;;6340459;27;20023;-80
2021/01/03 12:58:00;;;;;;;27.88;19.38;;;2.00;91.80;;;;;;6373256;27;20466;-78
2021/01/03 13:01:00;;;;;;;27.20;18.55;;;3.20;93.60;;;;;;6373305;27;20038;-78
2021/01/03 13:04:02;;;;;;;24.77;18.13;;;2.70;93.30;;;;;;6373655;27;20047;-78
2021/01/03 13:07:03;;;;;;;23.47;17.43;;;2.10;93.10;;;;;;6373443;27;20054;-78
2021/01/03 13:10:04;;;;;;;26.90;18.38;;;2.50;93.20;;;;;;6373174;27;20445;-77
2021/01/03 13:13:05;;;;;;;26.35;19.27;;;2.10;92.70;;;;;;6373082;27;20023;-78
2021/01/03 13:16:05;;;;;;;26.65;18.38;;;2.30;93.10;;;;;;6373434;27;20502;-78
2021/01/03 13:19:06;;;;;;;23.50;17.90;;;3.20;93.50;;;;;;6373906;27;20084;-78
2021/01/03 13:22:10;;;;;;;25.73;18.95;;;2.20;99.90;;;;;;6373214;27;20023;-79
2021/01/03 13:25:11;;;;;;;26.98;18.17;;;1.70;93.10;;;;;;6355145;28;20027;-78
2021/01/03 13:28:12;;;;;;;26.08;19.55;;;2.10;92.50;;;;;;6373340;28;20516;-78
2021/01/03 13:31:23;;;;;;;27.17;19.50;;;2.00;99.90;;;;;;6373024;27;20114;-80
2021/01/03 13:34:23;;;;;;;26.17;18.73;;;2.70;93.60;;;;;;6354743;28;20019;-78
2021/01/03 13:37:24;;;;;;;29.08;18.70;;;2.20;94.00;;;;;;6354614;28;20028;-77
2021/01/03 13:40:26;;;;;;;27.02;18.58;;;3.40;93.70;;;;;;6372859;28;20030;-78
2021/01/03 13:43:26;;;;;;;26.77;18.33;;;2.00;99.90;;;;;;6372912;28;20051;-78
2021/01/03 13:46:27;;;;;;;26.40;19.20;;;1.90;99.90;;;;;;6372731;27;20445;-79
2021/01/03 13:49:27;;;;;;;24.40;18.55;;;2.00;99.90;;;;;;6372885;28;20023;-78
2021/01/03 13:52:28;;;;;;;25.08;19.05;;;1.70;99.90;;;;;;6372637;28;20019;-79
2021/01/03 13:55:30;;;;;;;28.88;19.25;;;2.30;99.90;;;;;;6372768;27;20023;-79
2021/01/03 13:58:31;;;;;;;27.60;19.90;;;1.80;99.90;;;;;;6372858;28;20023;-78
2021/01/03 14:01:34;;;;;;;25.23;19.35;;;1.60;99.90;;;;;;6372725;27;20059;-79
2021/01/03 14:04:35;;;;;;;29.45;18.95;;;1.50;99.90;;;;;;6358899;27;20043;-80
2021/01/03 14:07:35;;;;;;;25.10;17.65;;;1.70;99.90;;;;;;6377343;27;20134;-79
2021/01/03 14:10:39;;;;;;;28.75;20.05;;;1.50;99.90;;;;;;6377383;27;20019;-78
2021/01/03 14:13:40;;;;;;;26.92;19.90;;;;;;;;;;6377179;27;20024;-78
2021/01/03 14:16:41;;;;;;;28.15;20.42;;;;;;;;;;6377455;27;20038;-79
2021/01/03 14:19:42;;;;;;;27.88;19.95;;;0.40;97.90;;;;;;6377089;27;20098;-79
2021/01/03 14:22:42;;;;;;;26.45;19.17;;;2.70;97.20;;;;;;6376939;27;20031;-78
2021/01/03 14:25:43;;;;;;;24.88;19.23;;;2.70;94.10;;;;;;6376985;27;20116;-79
2021/01/03 14:28:44;;;;;;;29.17;18.02;;;2.90;94.00;;;;;;6377354;27;20357;-78
2021/01/03 14:31:49;;;;;;;26.60;18.90;;;2.90;94.00;;;;;;6377569;27;20027;-80
2021/01/03 14:34:50;;;;;;;26.40;18.33;;;3.00;94.00;;;;;;6342115;27;20015;-79
2021/01/03 14:38:04;;;;;;;27.17;18.40;;;2.00;94.00;;;;;;6341511;27;20039;-78
2021/01/03 14:41:05;;;;;;;26.48;19.48;;;2.10;94.00;;;;;;6342857;27;20414;-78
2021/01/03 14:44:05;;;;;;;26.38;20.15;;;2.40;93.90;;;;;;6358300;27;20076;-78
2021/01/03 14:47:09;;;;;;;26.15;19.83;;;1.80;93.90;;;;;;6341458;27;20026;-78
2021/01/03 14:50:44;;;;;;;26.95;19.35;;;3.30;94.30;;;;;;6341715;27;20019;-78
2021/01/03 14:53:56;;;;;;;27.45;19.20;;;1.50;92.60;;;;;;6376669;27;20045;-77
2021/01/03 14:57:02;;;;;;;24.02;19.02;;;1.30;92.60;;;;;;6376117;27;20132;-78
2021/01/03 15:00:10;;;;;;;26.23;20.00;;;1.50;92.60;;;;;;6358570;27;20038;-79
2021/01/03 15:03:22;;;;;;;27.08;19.75;;;1.70;92.70;;;;;;6357833;27;20051;-79
2021/01/03 15:06:37;;;;;;;27.92;19.67;;;1.80;92.70;;;;;;6342082;27;20085;-78
2021/01/03 15:09:40;;;;;;;26.13;19.33;;;1.70;99.90;;;;;;6358643;27;20042;-78
2021/01/03 15:12:41;;;;;;;24.95;18.58;;;1.60;99.90;;;;;;6376105;27;20024;-78
2021/01/03 15:16:17;;;;;;;27.10;18.15;;;1.40;99.90;;;;;;6339689;27;20022;-78
2021/01/03 15:19:22;;;;;;;26.55;19.35;;;1.50;92.80;;;;;;6358704;27;20050;-78
2021/01/03 15:22:30;;;;;;;26.60;20.00;;;2.30;94.30;;;;;;6340643;27;20046;-77
2021/01/03 15:25:39;;;;;;;27.60;20.15;;;1.40;98.70;;;;;;6341581;27;20039;-79
2021/01/03 15:28:42;;;;;;;27.42;19.55;;;1.50;99.90;;;;;;6340959;27;20022;-78
2021/01/03 15:31:48;;;;;;;24.52;19.33;;;1.70;94.10;;;;;;6357347;27;20031;-80
2021/01/03 15:34:54;;;;;;;28.55;19.77;;;1.60;94.30;;;;;;6357144;27;20019;-78
2021/01/03 15:37:56;;;;;;;30.00;20.52;;;1.90;94.40;;;;;;6375006;27;20057;-78
2021/01/03 15:40:59;;;;;;;31.15;21.00;;;2.80;94.50;;;;;;6356920;27;20015;-77
2021/01/03 15:44:00;;;;;;;;;;;1.60;94.30;;;;;;6375816;27;20034;-80
2021/01/03 15:47:16;;;;;;;30.13;20.05;;;1.60;94.40;;;;;;6375402;27;19955;-77
2021/01/03 15:50:16;;;;;;;27.05;19.08;;;1.40;93.00;;;;;;6356776;27;20023;-78
2021/01/03 15:53:18;;;;;;;28.23;20.15;;;1.60;94.30;;;;;;6374850;27;20050;-78
2021/01/03 15:56:24;;;;;;;29.08;19.70;;;1.50;94.20;;;;;;6356888;27;20157;-78
2021/01/03 15:59:25;;;;;;;28.45;19.52;;;1.20;99.90;;;;;;6356407;27;20038;-77